createdAt,value
2022-10-18T00:02:20.350Z,5.03
2022-10-18T00:04:47.091Z,3.55
2022-10-18T00:07:13.869Z,3.78
2022-10-18T00:09:40.785Z,3.63
2022-10-18T00:12:08.190Z,2.78
2022-10-18T00:14:34.886Z,6.88
2022-10-18T00:17:01.751Z,5.07
2022-10-18T00:19:29.421Z,3.50
2022-10-18T00:21:56.398Z,3.33
2022-10-18T00:24:23.304Z,3.45
2022-10-18T00:26:50.019Z,3.88
2022-10-18T00:29:18.046Z,3.33
2022-10-18T00:31:45.329Z,2.60
2022-10-18T00:34:14.521Z,3.80
2022-10-18T00:36:42.109Z,3.83
2022-10-18T00:39:14.050Z,3.35
2022-10-18T00:41:40.785Z,3.03
2022-10-18T00:44:13.298Z,3.05
2022-10-18T00:46:45.549Z,2.85
2022-10-18T00:49:30.602Z,3.25
2022-10-18T00:52:02.069Z,3.15
2022-10-18T00:54:31.041Z,2.63
2022-10-18T00:56:57.953Z,3.10
2022-10-18T00:59:25.919Z,3.28
2022-10-18T01:01:52.779Z,3.50
2022-10-18T01:04:20.873Z,5.53
2022-10-18T01:07:08.975Z,2.83
2022-10-18T01:10:13.875Z,2.95
2022-10-18T01:12:53.700Z,3.22
2022-10-18T01:15:31.532Z,5.43
2022-10-18T01:18:17.119Z,3.08
2022-10-18T01:21:08.582Z,4.40
2022-10-18T01:24:12.499Z,4.03
2022-10-18T01:27:00.474Z,3.22
2022-10-18T01:29:59.433Z,3.22
2022-10-18T01:32:39.381Z,3.45
2022-10-18T01:35:12.594Z,3.58
2022-10-18T01:37:41.182Z,3.08
2022-10-18T01:40:09.197Z,2.83
2022-10-18T01:42:35.796Z,3.03
2022-10-18T01:45:04.118Z,2.78
2022-10-18T01:47:31.779Z,2.60
2022-10-18T01:50:00.643Z,2.60
2022-10-18T01:52:27.330Z,2.53
2022-10-18T01:54:55.675Z,5.38
2022-10-18T01:57:25.001Z,2.83
2022-10-18T02:00:04.005Z,3.80
2022-10-18T02:02:47.266Z,2.55
2022-10-18T02:05:21.789Z,2.47
2022-10-18T02:08:30.105Z,2.45
2022-10-18T02:11:04.558Z,3.40
2022-10-18T02:13:36.970Z,3.50
2022-10-18T02:16:12.020Z,4.20
2022-10-18T02:18:48.500Z,2.47
2022-10-18T02:21:19.385Z,4.22
2022-10-18T02:23:47.408Z,3.45
2022-10-18T02:26:15.895Z,3.20
2022-10-18T02:28:43.205Z,3.17
2022-10-18T02:31:26.254Z,2.47
2022-10-18T02:33:55.604Z,2.70
2022-10-18T02:36:45.342Z,2.80
2022-10-18T02:39:16.628Z,2.35
2022-10-18T02:41:43.577Z,2.50
2022-10-18T02:44:11.057Z,2.45
2022-10-18T02:46:38.743Z,3.47
2022-10-18T02:49:05.567Z,2.25
2022-10-18T02:51:32.403Z,3.83
2022-10-18T02:53:58.863Z,1.98
2022-10-18T02:56:25.503Z,2.35
2022-10-18T02:58:52.071Z,2.35
2022-10-18T03:01:18.642Z,4.22
2022-10-18T03:03:45.272Z,2.00
2022-10-18T03:06:11.825Z,3.25
2022-10-18T03:08:38.915Z,2.15
2022-10-18T03:11:05.850Z,2.40
2022-10-18T03:13:34.220Z,2.15
2022-10-18T03:16:01.222Z,1.73
2022-10-18T03:18:27.907Z,1.83
2022-10-18T03:20:54.429Z,2.67
2022-10-18T03:23:21.144Z,2.25
2022-10-18T03:25:47.833Z,2.50
2022-10-18T03:28:14.487Z,1.77
2022-10-18T03:30:41.285Z,3.00
2022-10-18T03:33:08.120Z,3.00
2022-10-18T03:35:34.805Z,2.28
2022-10-18T03:38:01.370Z,2.50
2022-10-18T03:40:28.006Z,2.53
2022-10-18T03:42:54.662Z,2.80
2022-10-18T03:45:21.288Z,4.07
2022-10-18T03:47:48.034Z,4.00
2022-10-18T03:50:14.598Z,2.60
2022-10-18T03:52:41.414Z,2.13
2022-10-18T03:55:08.423Z,2.10
2022-10-18T03:57:35.206Z,2.08
2022-10-18T04:00:02.146Z,2.15
2022-10-18T04:02:38.691Z,2.40
2022-10-18T04:05:05.821Z,1.70
2022-10-18T04:07:32.516Z,2.03
2022-10-18T04:09:59.518Z,1.83
2022-10-18T04:12:26.241Z,2.05
2022-10-18T04:14:53.926Z,2.00
2022-10-18T04:17:21.871Z,2.72
2022-10-18T04:19:49.370Z,3.22
2022-10-18T04:22:15.907Z,1.90
2022-10-18T04:24:42.551Z,3.85
2022-10-18T04:27:09.183Z,2.80
2022-10-18T04:29:35.792Z,2.00
2022-10-18T04:32:02.622Z,1.73
2022-10-18T04:34:29.305Z,2.92
2022-10-18T04:36:56.057Z,1.88
2022-10-18T04:39:22.733Z,1.75
2022-10-18T04:41:49.367Z,2.15
2022-10-18T04:44:16.292Z,2.25
2022-10-18T04:46:42.875Z,1.60
2022-10-18T04:49:09.725Z,3.47
2022-10-18T04:51:36.459Z,1.73
2022-10-18T04:54:03.246Z,2.60
2022-10-18T04:56:30.119Z,2.05
2022-10-18T04:58:56.601Z,2.15
2022-10-18T05:01:23.243Z,2.25
2022-10-18T05:03:54.322Z,1.70
2022-10-18T05:06:22.355Z,2.03
2022-10-18T05:08:49.394Z,3.15
2022-10-18T05:11:16.126Z,2.63
2022-10-18T05:13:44.937Z,1.80
2022-10-18T05:16:13.847Z,3.15
2022-10-18T05:18:40.572Z,2.78
2022-10-18T05:21:07.379Z,2.28
2022-10-18T05:23:33.927Z,3.60
2022-10-18T05:26:05.490Z,2.50
2022-10-18T05:28:41.142Z,1.60
2022-10-18T05:31:10.222Z,2.58
2022-10-18T05:33:37.078Z,1.35
2022-10-18T05:36:04.513Z,2.38
2022-10-18T05:38:31.595Z,1.60
2022-10-18T05:40:59.372Z,2.97
2022-10-18T05:43:28.953Z,2.55
2022-10-18T05:45:55.970Z,2.25
2022-10-18T05:48:22.801Z,2.03
2022-10-18T05:50:49.413Z,1.60
2022-10-18T05:53:35.864Z,2.97
2022-10-18T05:56:03.469Z,1.73
2022-10-18T05:58:30.107Z,1.55
2022-10-18T06:01:01.015Z,1.67
2022-10-18T06:03:27.791Z,3.28
2022-10-18T06:06:02.357Z,2.67
2022-10-18T06:08:29.090Z,1.52
2022-10-18T06:10:55.857Z,3.30
2022-10-18T06:13:22.563Z,4.72
2022-10-18T06:15:49.285Z,1.75
2022-10-18T06:18:16.637Z,2.40
2022-10-18T06:20:43.324Z,3.15
2022-10-18T06:23:10.049Z,2.42
2022-10-18T06:25:36.781Z,2.95
2022-10-18T06:28:07.839Z,3.00
2022-10-18T06:30:37.064Z,3.25
2022-10-18T06:33:03.667Z,7.90
2022-10-18T06:35:30.257Z,12.95
2022-10-18T06:37:57.590Z,22.23
2022-10-18T06:40:24.333Z,39.47
2022-10-18T06:43:00.149Z,50.50
2022-10-18T06:45:33.501Z,56.13
2022-10-18T06:48:00.028Z,66.15
2022-10-18T06:50:26.668Z,63.17
2022-10-18T06:52:53.240Z,68.70
2022-10-18T06:55:19.721Z,80.68
2022-10-18T06:57:46.524Z,80.30
2022-10-18T07:00:13.975Z,86.25
2022-10-18T07:02:41.274Z,86.30
2022-10-18T07:05:09.317Z,86.93
2022-10-18T07:07:36.187Z,94.50
2022-10-18T07:10:03.050Z,91.60
2022-10-18T07:12:30.820Z,99.75
2022-10-18T07:14:57.391Z,101.57
2022-10-18T07:17:24.413Z,107.28
2022-10-18T07:19:50.973Z,107.03
2022-10-18T07:22:17.544Z,104.05
2022-10-18T07:24:44.119Z,108.70
2022-10-18T07:27:10.705Z,110.75
2022-10-18T07:29:40.967Z,111.18
2022-10-18T07:32:07.592Z,104.45
2022-10-18T07:34:34.253Z,110.60
2022-10-18T07:37:01.962Z,110.22
2022-10-18T07:39:28.757Z,108.80
2022-10-18T07:41:55.518Z,107.35
2022-10-18T07:44:22.246Z,113.20
2022-10-18T07:46:48.838Z,112.03
2022-10-18T07:49:15.552Z,111.32
2022-10-18T07:51:42.812Z,111.32
2022-10-18T07:54:09.725Z,114.10
2022-10-18T07:56:36.353Z,113.55
2022-10-18T07:59:03.034Z,111.07
2022-10-18T08:01:29.676Z,111.95
2022-10-18T08:03:56.309Z,113.07
2022-10-18T08:06:23.302Z,116.53
2022-10-18T08:08:50.295Z,114.68
2022-10-18T08:11:19.896Z,110.05
2022-10-18T08:13:46.884Z,111.22
2022-10-18T08:16:16.309Z,106.85
2022-10-18T08:18:43.463Z,108.85
2022-10-18T08:21:11.816Z,109.25
2022-10-18T08:23:38.935Z,111.03
2022-10-18T08:26:09.168Z,112.40
2022-10-18T08:28:39.090Z,112.72
2022-10-18T08:31:07.762Z,109.68
2022-10-18T08:33:35.865Z,112.20
2022-10-18T08:36:05.886Z,110.07
2022-10-18T08:38:34.478Z,106.68
2022-10-18T08:41:28.130Z,108.73
2022-10-18T08:44:19.351Z,111.10
2022-10-18T08:46:48.624Z,99.60
2022-10-18T08:51:50.529Z,100.50
2022-10-18T08:54:54.186Z,97.63
2022-10-18T08:57:20.798Z,98.38
2022-10-18T08:59:47.476Z,95.50
2022-10-18T09:02:30.889Z,91.25
2022-10-18T09:05:27.203Z,96.32
2022-10-18T09:08:02.600Z,95.13
2022-10-18T09:10:44.114Z,88.50
2022-10-18T09:13:25.032Z,88.43
2022-10-18T09:16:01.481Z,86.45
2022-10-18T09:18:42.955Z,86.18
2022-10-18T09:21:40.061Z,83.85
2022-10-18T09:24:14.380Z,83.80
2022-10-18T09:26:46.172Z,82.35
2022-10-18T09:29:32.540Z,79.78
2022-10-18T09:32:34.422Z,78.57
2022-10-18T09:35:11.774Z,78.57
2022-10-18T09:37:39.537Z,75.15
2022-10-18T09:40:24.401Z,74.72
2022-10-18T09:43:02.819Z,76.07
2022-10-18T09:45:35.225Z,70.78
2022-10-18T09:48:57.523Z,69.45
2022-10-18T09:51:28.744Z,67.20
2022-10-18T09:54:07.343Z,69.50
2022-10-18T09:56:42.153Z,66.22
2022-10-18T09:59:23.425Z,65.55
2022-10-18T10:01:50.132Z,64.28
2022-10-18T10:04:16.758Z,66.72
2022-10-18T10:06:51.033Z,67.43
2022-10-18T10:09:21.238Z,68.47
2022-10-18T10:11:50.165Z,65.68
2022-10-18T10:14:18.138Z,65.70
2022-10-18T10:16:49.726Z,65.40
2022-10-18T10:19:38.107Z,65.07
2022-10-18T10:22:12.136Z,60.03
2022-10-18T10:24:48.803Z,64.40
2022-10-18T10:27:21.002Z,59.58
2022-10-18T10:29:47.585Z,60.17
2022-10-18T10:32:17.175Z,63.47
2022-10-18T10:34:44.999Z,61.55
2022-10-18T10:37:41.488Z,62.25
2022-10-18T10:40:21.226Z,58.42
2022-10-18T10:43:00.085Z,59.17
2022-10-18T10:45:39.212Z,57.28
2022-10-18T10:48:13.810Z,58.05
2022-10-18T10:51:14.300Z,59.40
2022-10-18T10:53:50.517Z,55.72
2022-10-18T10:56:22.877Z,53.28
2022-10-18T10:58:51.315Z,52.47
2022-10-18T11:01:31.120Z,54.53
2022-10-18T11:04:21.859Z,52.47
2022-10-18T11:06:59.084Z,51.95
2022-10-18T11:09:59.951Z,49.60
2022-10-18T11:12:34.739Z,51.53
2022-10-18T11:15:12.010Z,47.67
2022-10-18T11:18:07.978Z,52.20
2022-10-18T11:20:41.801Z,50.92
2022-10-18T11:23:12.322Z,50.40
2022-10-18T11:25:56.110Z,51.33
2022-10-18T11:28:53.414Z,46.58
2022-10-18T11:31:45.002Z,45.80
2022-10-18T11:34:36.947Z,48.75
2022-10-18T11:37:31.029Z,46.45
2022-10-18T11:40:18.690Z,43.42
2022-10-18T11:43:01.439Z,42.88
2022-10-18T11:45:46.715Z,40.80
2022-10-18T11:48:52.069Z,44.03
2022-10-18T11:51:44.533Z,40.72
2022-10-18T11:54:26.172Z,38.67
2022-10-18T11:57:14.918Z,39.95
2022-10-18T12:03:26.958Z,38.38
2022-10-18T12:05:57.166Z,35.67
2022-10-18T12:08:41.686Z,36.25
2022-10-18T12:11:41.837Z,38.78
2022-10-18T12:14:35.229Z,39.70
2022-10-18T12:17:40.781Z,38.40
2022-10-18T12:20:04.789Z,36.25
2022-10-18T12:22:42.980Z,36.30
2022-10-18T12:25:14.636Z,39.08
2022-10-18T12:27:48.937Z,36.70
2022-10-18T12:30:54.304Z,35.47
2022-10-18T12:33:28.676Z,37.55
2022-10-18T12:36:10.162Z,35.65
2022-10-18T12:38:42.476Z,32.08
2022-10-18T12:41:20.550Z,33.55
2022-10-18T12:44:05.170Z,35.50
2022-10-18T12:46:50.565Z,32.63
2022-10-18T12:49:29.563Z,32.78
2022-10-18T12:51:59.785Z,31.48
2022-10-18T12:55:21.478Z,31.98
2022-10-18T12:57:53.930Z,31.00
2022-10-18T13:00:32.368Z,32.67
2022-10-18T13:03:16.561Z,29.10
2022-10-18T13:05:54.506Z,29.20
2022-10-18T13:08:27.660Z,28.92
2022-10-18T13:11:12.333Z,27.98
2022-10-18T13:14:24.672Z,27.55
2022-10-18T13:17:19.317Z,25.88
2022-10-18T13:20:25.492Z,28.88
2022-10-18T13:23:05.087Z,26.60
2022-10-18T13:26:09.358Z,30.30
2022-10-18T13:28:35.939Z,25.70
2022-10-18T13:31:30.287Z,29.27
2022-10-18T13:34:39.035Z,24.55
2022-10-18T13:37:11.676Z,24.75
2022-10-18T13:39:39.746Z,26.17
2022-10-18T13:42:15.742Z,25.70
2022-10-18T13:44:44.656Z,22.77
2022-10-18T13:47:13.196Z,23.10
2022-10-18T13:49:40.003Z,22.07
2022-10-18T13:52:15.577Z,22.98
2022-10-18T13:54:56.013Z,22.50
2022-10-18T13:57:56.259Z,22.95
2022-10-18T14:00:49.499Z,22.90
2022-10-18T14:04:22.331Z,25.00
2022-10-18T14:06:51.883Z,20.83
2022-10-18T14:09:45.359Z,22.25
2022-10-18T14:12:20.429Z,24.42
2022-10-18T14:15:09.186Z,22.80
2022-10-18T14:17:49.402Z,21.15
2022-10-18T14:20:29.454Z,19.23
2022-10-18T14:23:04.914Z,20.00
2022-10-18T14:25:35.784Z,20.33
2022-10-18T14:28:31.369Z,22.13
2022-10-18T14:31:18.444Z,17.55
2022-10-18T14:33:50.153Z,18.50
2022-10-18T14:36:18.184Z,18.55
2022-10-18T14:38:59.575Z,19.27
2022-10-18T14:41:30.573Z,17.00
2022-10-18T14:44:15.248Z,17.25
2022-10-18T14:46:55.653Z,17.58
2022-10-18T14:49:22.267Z,20.23
2022-10-18T14:51:54.164Z,17.15
2022-10-18T14:54:32.962Z,18.90
2022-10-18T14:57:01.388Z,16.65
2022-10-18T14:59:32.237Z,15.93
2022-10-18T15:02:10.518Z,17.45
2022-10-18T15:04:37.168Z,18.00
2022-10-18T15:07:07.361Z,17.10
2022-10-18T15:09:36.852Z,15.68
2022-10-18T15:12:06.025Z,15.30
2022-10-18T15:17:03.813Z,15.43
2022-10-18T15:19:36.684Z,16.80
2022-10-18T15:22:31.430Z,16.95
2022-10-18T15:25:31.790Z,15.05
2022-10-18T15:28:00.288Z,14.52
2022-10-18T15:30:29.596Z,13.47
2022-10-18T15:35:42.218Z,13.30
2022-10-18T15:38:27.163Z,16.10
2022-10-18T15:40:54.659Z,15.43
2022-10-18T15:43:24.309Z,12.98
2022-10-18T15:46:03.235Z,13.73
2022-10-18T15:48:40.861Z,15.20
2022-10-18T15:51:12.542Z,14.30
2022-10-18T15:53:46.035Z,15.43
2022-10-18T15:56:31.209Z,12.23
2022-10-18T15:58:59.971Z,13.52
2022-10-18T16:01:44.818Z,12.98
2022-10-18T16:04:25.421Z,12.15
2022-10-18T16:06:54.194Z,14.23
2022-10-18T16:09:22.949Z,13.52
2022-10-18T16:11:56.440Z,12.10
2022-10-18T16:14:25.174Z,13.18
2022-10-18T16:17:00.771Z,11.53
2022-10-18T16:19:27.791Z,13.30
2022-10-18T16:21:54.947Z,13.15
2022-10-18T16:24:22.941Z,12.90
2022-10-18T16:26:49.791Z,12.95
2022-10-18T16:29:28.732Z,11.27
2022-10-18T16:31:58.290Z,12.27
2022-10-18T16:34:27.037Z,12.10
2022-10-18T16:36:54.543Z,13.63
2022-10-18T16:39:22.207Z,10.68
2022-10-18T16:41:49.108Z,11.73
2022-10-18T16:44:16.760Z,11.43
2022-10-18T16:46:43.833Z,10.75
2022-10-18T16:49:24.755Z,11.50
2022-10-18T16:51:55.197Z,11.70
2022-10-18T16:54:23.536Z,13.63
2022-10-18T16:56:50.501Z,10.43
2022-10-18T16:59:27.850Z,13.32
2022-10-18T17:01:55.080Z,10.20
2022-10-18T17:04:21.981Z,11.13
2022-10-18T17:06:49.513Z,10.50
2022-10-18T17:09:16.433Z,11.00
2022-10-18T17:11:43.081Z,11.73
2022-10-18T17:14:09.746Z,9.55
2022-10-18T17:16:37.164Z,9.82
2022-10-18T17:19:07.552Z,10.40
2022-10-18T17:21:34.738Z,10.30
2022-10-18T17:24:03.319Z,8.68
2022-10-18T17:26:30.634Z,8.95
2022-10-18T17:29:08.127Z,9.63
2022-10-18T17:31:35.677Z,9.55
2022-10-18T17:34:03.800Z,8.57
2022-10-18T17:36:32.064Z,9.68
2022-10-18T17:38:59.180Z,9.43
2022-10-18T17:41:26.487Z,8.77
2022-10-18T17:44:11.482Z,7.97
2022-10-18T17:46:38.223Z,10.75
2022-10-18T17:49:04.880Z,8.43
2022-10-18T17:51:31.609Z,9.43
2022-10-18T17:53:58.303Z,8.40
2022-10-18T17:56:27.110Z,8.95
2022-10-18T17:58:53.690Z,7.55
2022-10-18T18:01:23.100Z,8.88
2022-10-18T18:03:50.735Z,9.07
2022-10-18T18:06:30.834Z,7.80
2022-10-18T18:08:59.612Z,7.68
2022-10-18T18:11:27.102Z,7.75
2022-10-18T18:13:55.643Z,8.40
2022-10-18T18:16:24.814Z,9.13
2022-10-18T18:21:20.233Z,8.73
2022-10-18T18:23:47.329Z,7.05
2022-10-18T18:26:17.049Z,7.63
2022-10-18T18:28:43.799Z,6.78
2022-10-18T18:31:25.376Z,8.20
2022-10-18T18:33:54.220Z,7.75
2022-10-18T18:36:22.252Z,8.52
2022-10-18T18:38:53.039Z,7.13
2022-10-18T18:41:24.699Z,7.47
2022-10-18T18:44:04.106Z,7.50
2022-10-18T18:46:34.272Z,8.55
2022-10-18T18:49:00.848Z,7.28
2022-10-18T18:51:27.439Z,8.02
2022-10-18T18:53:54.770Z,7.57
2022-10-18T18:56:23.832Z,6.05
2022-10-18T18:58:52.171Z,7.00
2022-10-18T19:01:21.837Z,6.90
2022-10-18T19:03:50.688Z,6.55
2022-10-18T19:06:39.130Z,6.90
2022-10-18T19:09:18.416Z,6.25
2022-10-18T19:11:46.662Z,6.00
2022-10-18T19:14:13.648Z,6.80
2022-10-18T19:16:51.347Z,5.68
2022-10-18T19:19:20.576Z,6.65
2022-10-18T19:21:51.307Z,6.88
2022-10-18T19:24:18.766Z,6.20
2022-10-18T19:26:56.865Z,6.75
2022-10-18T19:29:28.783Z,7.40
2022-10-18T19:31:57.712Z,6.28
2022-10-18T19:34:26.299Z,6.55
2022-10-18T19:36:53.244Z,7.45
2022-10-18T19:39:24.005Z,6.00
2022-10-18T19:41:55.123Z,5.20
2022-10-18T19:44:23.037Z,6.13
2022-10-18T19:46:49.788Z,6.15
2022-10-18T19:49:16.792Z,5.57
2022-10-18T19:51:43.670Z,5.90
2022-10-18T19:54:12.054Z,6.22
2022-10-18T19:56:39.145Z,4.80
2022-10-18T19:59:05.768Z,6.45
2022-10-18T20:01:32.372Z,5.38
2022-10-18T20:03:59.502Z,5.57
2022-10-18T20:06:26.110Z,6.60
2022-10-18T20:08:52.773Z,4.82
2022-10-18T20:11:22.502Z,4.72
2022-10-18T20:13:49.317Z,5.50
2022-10-18T20:16:17.506Z,6.03
2022-10-18T20:18:44.217Z,5.20
2022-10-18T20:21:16.647Z,6.00
2022-10-18T20:23:44.394Z,5.25
2022-10-18T20:26:18.113Z,6.30
2022-10-18T20:28:58.017Z,5.32
2022-10-18T20:31:30.381Z,5.37
2022-10-18T20:34:02.206Z,4.95
2022-10-18T20:36:49.610Z,4.55
2022-10-18T20:39:16.306Z,6.53
2022-10-18T20:41:43.115Z,4.70
2022-10-18T20:44:13.627Z,5.55
2022-10-18T20:49:24.591Z,5.85
2022-10-18T20:51:51.208Z,5.30
2022-10-18T20:54:17.958Z,3.80
2022-10-18T20:56:44.850Z,3.78
2022-10-18T20:59:12.204Z,4.25
2022-10-18T21:01:39.257Z,3.50
2022-10-18T21:04:08.259Z,4.97
2022-10-18T21:06:41.790Z,4.80
2022-10-18T21:09:16.591Z,4.47
2022-10-18T21:11:45.421Z,3.65
2022-10-18T21:14:36.591Z,4.10
2022-10-18T21:17:03.206Z,4.53
2022-10-18T21:19:29.843Z,4.40
2022-10-18T21:21:57.684Z,8.00
2022-10-18T21:24:26.245Z,7.78
2022-10-18T21:26:52.861Z,9.05
2022-10-18T21:29:22.153Z,13.32
2022-10-18T21:31:49.056Z,7.07
2022-10-18T21:37:01.460Z,7.78
2022-10-18T21:39:28.080Z,6.78
2022-10-18T21:41:54.735Z,5.35
2022-10-18T21:44:21.412Z,7.63
2022-10-18T21:46:48.095Z,8.98
2022-10-18T21:49:15.401Z,6.90
2022-10-18T21:51:42.261Z,6.28
2022-10-18T21:54:12.789Z,6.72
2022-10-18T21:56:39.647Z,6.28
2022-10-18T21:59:06.265Z,5.35
2022-10-18T22:01:36.190Z,9.18
2022-10-18T22:04:04.941Z,8.40
2022-10-18T22:09:08.406Z,3.85
2022-10-18T22:11:57.031Z,4.85
2022-10-18T22:14:23.783Z,6.75
2022-10-18T22:16:50.968Z,7.15
2022-10-18T22:19:17.619Z,4.97
2022-10-18T22:21:44.241Z,5.07
2022-10-18T22:24:10.812Z,4.68
2022-10-18T22:26:40.746Z,4.50
2022-10-18T22:29:11.939Z,5.63
2022-10-18T22:31:41.811Z,5.32
2022-10-18T22:34:12.445Z,6.75
2022-10-18T22:36:39.472Z,2.90
2022-10-18T22:39:06.848Z,4.97
2022-10-18T22:41:34.498Z,4.75
2022-10-18T22:44:03.583Z,4.43
2022-10-18T22:46:32.580Z,2.65
2022-10-18T22:48:59.578Z,3.45
2022-10-18T22:51:26.514Z,3.65
2022-10-18T22:53:53.123Z,4.40
2022-10-18T22:56:21.868Z,5.07
2022-10-18T22:58:48.756Z,4.65
2022-10-18T23:01:18.785Z,5.18
2022-10-18T23:03:46.072Z,2.88
2022-10-18T23:06:33.965Z,3.05
2022-10-18T23:09:02.816Z,3.28
2022-10-18T23:11:29.530Z,4.20
2022-10-18T23:13:56.472Z,3.45
2022-10-18T23:16:23.973Z,4.25
2022-10-18T23:18:52.654Z,3.60
2022-10-18T23:21:20.572Z,3.92
2022-10-18T23:23:47.262Z,3.05
2022-10-18T23:26:16.186Z,3.83
2022-10-18T23:28:45.879Z,3.05
2022-10-18T23:31:32.991Z,3.45
2022-10-18T23:34:01.989Z,3.50
2022-10-18T23:36:29.875Z,4.55
2022-10-18T23:38:56.868Z,3.10
2022-10-18T23:41:23.997Z,3.85
2022-10-18T23:43:50.857Z,4.97
2022-10-18T23:46:18.083Z,4.18
2022-10-18T23:48:44.746Z,4.90
2022-10-18T23:51:12.019Z,3.63
2022-10-18T23:53:38.937Z,4.15
2022-10-18T23:56:08.835Z,3.50
2022-10-18T23:58:36.700Z,3.53
